createdAt,value
2019-05-03T00:01:02.396Z,99193.08
2019-05-03T00:03:28.463Z,99175.42
2019-05-03T00:05:56.324Z,99167.23
2019-05-03T00:08:22.362Z,99166.92
2019-05-03T00:10:48.512Z,99167.73
2019-05-03T00:13:14.540Z,99167.66
2019-05-03T00:15:54.515Z,99154.23
2019-05-03T00:18:22.129Z,99160.06
2019-05-03T00:20:48.253Z,99151.97
2019-05-03T00:23:14.320Z,99148.25
2019-05-03T00:25:41.785Z,99137.02
2019-05-03T00:28:07.963Z,99139.88
2019-05-03T00:30:33.993Z,99136.76
2019-05-03T00:33:00.072Z,99135.80
2019-05-03T00:35:27.814Z,99130.67
2019-05-03T00:37:55.546Z,99130.47
2019-05-03T00:40:28.121Z,99124.78
2019-05-03T00:42:54.165Z,99126.00
2019-05-03T00:45:22.034Z,99125.72
2019-05-03T00:47:48.014Z,99123.53
2019-05-03T00:50:14.037Z,99118.89
2019-05-03T00:52:39.915Z,99120.11
2019-05-03T00:55:15.781Z,99120.03
2019-05-03T00:57:33.684Z,99129.66
2019-05-03T01:00:01.806Z,99130.30
2019-05-03T01:02:27.468Z,99123.10
2019-05-03T01:04:53.686Z,99130.52
2019-05-03T01:07:19.831Z,99128.96
2019-05-03T01:09:45.912Z,99128.79
2019-05-03T01:12:12.623Z,99129.27
2019-05-03T01:14:39.885Z,99128.79
2019-05-03T01:17:05.751Z,99137.05
2019-05-03T01:19:32.131Z,99129.76
2019-05-03T01:21:58.036Z,99121.77
2019-05-03T01:24:23.976Z,99117.30
2019-05-03T01:26:49.970Z,99120.72
2019-05-03T01:29:15.855Z,99116.13
2019-05-03T01:31:44.596Z,99118.13
2019-05-03T01:34:12.396Z,99121.18
2019-05-03T01:36:38.596Z,99123.27
2019-05-03T01:39:04.830Z,99121.56
2019-05-03T01:41:32.331Z,99119.55
2019-05-03T01:43:58.266Z,99105.78
2019-05-03T01:46:24.333Z,99098.36
2019-05-03T01:48:52.464Z,99098.36
2019-05-03T01:51:22.917Z,99109.84
2019-05-03T01:53:49.860Z,99114.79
2019-05-03T01:56:15.756Z,99111.94
2019-05-03T01:58:41.780Z,99106.12
2019-05-03T02:01:15.681Z,99100.80
2019-05-03T02:04:00.123Z,99101.27
2019-05-03T02:06:26.074Z,99101.28
2019-05-03T02:08:52.238Z,99106.31
2019-05-03T02:11:18.231Z,99101.73
2019-05-03T02:13:44.072Z,99103.95
2019-05-03T02:16:11.601Z,99100.41
2019-05-03T02:18:37.655Z,99099.06
2019-05-03T02:21:03.731Z,99097.62
2019-05-03T02:23:29.576Z,99090.75
2019-05-03T02:25:58.941Z,99090.08
2019-05-03T02:28:23.231Z,99083.65
2019-05-03T02:30:49.221Z,99083.81
2019-05-03T02:33:15.238Z,99078.87
2019-05-03T02:35:42.944Z,99076.89
2019-05-03T02:38:09.637Z,99070.69
2019-05-03T02:40:35.638Z,99074.97
2019-05-03T02:43:12.355Z,99072.42
2019-05-03T02:45:40.361Z,99073.07
2019-05-03T02:48:16.517Z,99072.84
2019-05-03T02:50:42.281Z,99069.48
2019-05-03T02:53:08.125Z,99070.08
2019-05-03T02:55:35.914Z,99066.68
2019-05-03T02:58:01.941Z,99066.45
2019-05-03T03:00:37.418Z,99062.63
2019-05-03T03:03:05.478Z,99064.72
2019-05-03T03:05:31.451Z,99068.52
2019-05-03T03:07:58.212Z,99062.43
2019-05-03T03:10:26.485Z,99063.36
2019-05-03T03:12:56.350Z,99056.73
2019-05-03T03:15:25.690Z,99060.00
2019-05-03T03:17:52.670Z,99052.19
2019-05-03T03:20:18.618Z,99047.83
2019-05-03T03:22:47.675Z,99040.98
2019-05-03T03:25:17.508Z,99042.44
2019-05-03T03:27:45.335Z,99043.13
2019-05-03T03:30:30.927Z,99032.69
2019-05-03T03:32:58.991Z,99035.73
2019-05-03T03:35:29.834Z,99041.25
2019-05-03T03:37:56.040Z,99018.47
2019-05-03T03:40:25.441Z,99042.03
2019-05-03T03:42:51.583Z,99041.87
2019-05-03T03:45:17.653Z,99037.39
2019-05-03T03:47:46.509Z,99032.64
2019-05-03T03:50:15.054Z,99037.48
2019-05-03T03:52:40.640Z,99032.45
2019-05-03T03:55:06.991Z,99039.12
2019-05-03T03:57:35.639Z,99042.66
2019-05-03T04:00:05.450Z,99050.52
2019-05-03T04:02:35.133Z,99054.34
2019-05-03T04:05:00.134Z,99044.63
2019-05-03T04:07:26.383Z,99046.17
2019-05-03T04:09:56.083Z,99047.52
2019-05-03T04:12:21.351Z,99056.06
2019-05-03T04:15:01.719Z,99052.36
2019-05-03T04:17:46.795Z,99054.14
2019-05-03T04:20:16.206Z,99058.98
2019-05-03T04:22:41.902Z,99056.15
2019-05-03T04:25:08.061Z,99059.77
2019-05-03T04:27:36.478Z,99072.89
2019-05-03T04:30:05.854Z,99068.25
2019-05-03T04:32:35.958Z,99075.09
2019-05-03T04:35:05.371Z,99072.89
2019-05-03T04:37:31.458Z,99071.63
2019-05-03T04:39:57.429Z,99072.79
2019-05-03T04:42:25.374Z,99079.06
2019-05-03T04:44:51.119Z,99079.21
2019-05-03T04:47:17.181Z,99076.19
2019-05-03T04:49:45.989Z,99076.78
2019-05-03T04:52:10.911Z,99078.78
2019-05-03T04:54:50.618Z,99083.70
2019-05-03T04:57:34.341Z,99073.66
2019-05-03T04:59:45.146Z,99077.36
2019-05-03T05:02:11.502Z,99076.03
2019-05-03T05:04:37.334Z,99077.56
2019-05-03T05:07:05.935Z,99071.47
2019-05-03T05:09:31.254Z,99069.75
2019-05-03T05:11:57.195Z,99075.44
2019-05-03T05:14:25.656Z,99080.67
2019-05-03T05:16:50.791Z,99077.27
2019-05-03T05:19:18.632Z,99079.66
2019-05-03T05:21:46.495Z,99086.34
2019-05-03T05:24:12.513Z,99083.30
2019-05-03T05:26:44.620Z,99079.98
2019-05-03T05:29:15.408Z,99086.73
2019-05-03T05:31:41.237Z,99088.27
2019-05-03T05:34:08.809Z,99087.13
2019-05-03T05:36:35.083Z,99093.61
2019-05-03T05:39:00.930Z,99087.27
2019-05-03T05:41:27.018Z,99087.27
2019-05-03T05:43:54.845Z,99092.09
2019-05-03T05:46:22.520Z,99089.03
2019-05-03T05:48:49.988Z,99090.36
2019-05-03T05:51:16.223Z,99082.70
2019-05-03T05:53:42.187Z,99085.09
2019-05-03T05:56:18.768Z,99087.84
2019-05-03T05:58:52.274Z,99088.78
2019-05-03T06:01:24.873Z,99094.25
2019-05-03T06:03:50.647Z,99094.72
2019-05-03T06:06:18.394Z,99098.74
2019-05-03T06:08:49.579Z,99097.66
2019-05-03T06:11:26.365Z,99094.14
2019-05-03T06:13:54.607Z,99100.66
2019-05-03T06:16:24.416Z,99101.70
2019-05-03T06:18:52.051Z,99099.37
2019-05-03T06:21:24.968Z,99111.09
2019-05-03T06:23:53.100Z,99101.91
2019-05-03T06:26:35.950Z,99115.55
2019-05-03T06:29:04.626Z,99109.23
2019-05-03T06:31:38.454Z,99120.98
2019-05-03T06:34:04.591Z,99117.84
2019-05-03T06:36:30.592Z,99120.12
2019-05-03T06:38:56.769Z,99115.53
2019-05-03T06:41:22.726Z,99115.53
2019-05-03T06:43:48.886Z,99120.52
2019-05-03T06:46:18.158Z,99114.84
2019-05-03T06:48:44.359Z,99112.66
2019-05-03T06:51:14.118Z,99116.27
2019-05-03T06:53:41.930Z,99118.48
2019-05-03T06:56:05.912Z,99120.67
2019-05-03T06:58:35.742Z,99126.77
2019-05-03T07:01:01.643Z,99122.80
2019-05-03T07:03:35.461Z,99134.02
2019-05-03T07:06:18.415Z,99129.63
2019-05-03T07:08:55.235Z,99129.73
2019-05-03T07:11:21.252Z,99127.66
2019-05-03T07:13:47.121Z,99123.39
2019-05-03T07:16:14.898Z,99129.43
2019-05-03T07:18:40.924Z,99129.39
2019-05-03T07:21:07.015Z,99127.10
2019-05-03T07:23:34.758Z,99122.45
2019-05-03T07:26:00.828Z,99123.22
2019-05-03T07:28:26.816Z,99127.01
2019-05-03T07:30:54.411Z,99126.27
2019-05-03T07:33:25.559Z,99129.45
2019-05-03T07:35:51.604Z,99125.64
2019-05-03T07:38:17.542Z,99126.28
2019-05-03T07:40:44.591Z,99131.80
2019-05-03T07:43:10.715Z,99137.36
2019-05-03T07:45:36.587Z,99137.81
2019-05-03T07:48:04.544Z,99147.14
2019-05-03T07:50:32.999Z,99147.80
2019-05-03T07:52:58.285Z,99158.94
2019-05-03T07:55:42.737Z,99155.74
2019-05-03T07:58:10.500Z,99147.86
2019-05-03T08:00:36.555Z,99150.64
2019-05-03T08:03:04.912Z,99154.98
2019-05-03T08:05:30.893Z,99158.97
2019-05-03T08:07:56.730Z,99155.27
2019-05-03T08:10:22.822Z,99155.80
2019-05-03T08:12:48.676Z,99156.36
2019-05-03T08:15:15.731Z,99151.88
2019-05-03T08:17:41.789Z,99153.87
2019-05-03T08:20:07.823Z,99158.66
2019-05-03T08:22:34.533Z,99158.08
2019-05-03T08:25:00.558Z,99153.73
2019-05-03T08:27:26.419Z,99158.61
2019-05-03T08:29:52.271Z,99163.27
2019-05-03T08:32:32.400Z,99168.14
2019-05-03T08:35:16.937Z,99166.72
2019-05-03T08:37:50.649Z,99175.34
2019-05-03T08:40:17.319Z,99172.34
2019-05-03T08:42:44.463Z,99174.16
2019-05-03T08:45:10.738Z,99177.45
2019-05-03T08:47:36.674Z,99179.78
2019-05-03T08:50:05.610Z,99175.03
2019-05-03T08:52:31.775Z,99175.27
2019-05-03T08:54:57.642Z,99176.80
2019-05-03T08:57:25.343Z,99176.95
2019-05-03T08:59:51.350Z,99172.56
2019-05-03T09:02:18.125Z,99181.73
2019-05-03T09:04:46.243Z,99170.48
2019-05-03T09:07:14.610Z,99170.22
2019-05-03T09:09:42.178Z,99168.80
2019-05-03T09:12:08.156Z,99168.50
2019-05-03T09:14:42.556Z,99172.34
2019-05-03T09:17:02.258Z,99168.27
2019-05-03T09:19:28.123Z,99167.08
2019-05-03T09:21:54.885Z,99164.42
2019-05-03T09:24:20.892Z,99163.84
2019-05-03T09:26:46.832Z,99151.71
2019-05-03T09:29:14.708Z,99155.50
2019-05-03T09:31:40.568Z,99156.15
2019-05-03T09:34:08.283Z,99155.34
2019-05-03T09:36:34.591Z,99155.97
2019-05-03T09:39:00.630Z,99162.24
2019-05-03T09:41:27.167Z,99154.87
2019-05-03T09:43:55.253Z,99148.82
2019-05-03T09:46:23.334Z,99155.76
2019-05-03T09:48:48.521Z,99145.80
2019-05-03T09:51:14.897Z,99144.75
2019-05-03T09:53:51.757Z,99121.17
2019-05-03T09:56:19.571Z,99172.33
2019-05-03T09:58:46.117Z,99135.69
2019-05-03T10:01:12.250Z,99144.88
2019-05-03T10:03:38.334Z,99138.44
2019-05-03T10:06:04.357Z,99145.89
2019-05-03T10:08:30.189Z,99145.23
2019-05-03T10:11:11.519Z,99145.84
2019-05-03T10:13:37.659Z,99150.30
2019-05-03T10:16:05.979Z,99136.38
2019-05-03T10:18:34.812Z,99133.00
2019-05-03T10:21:00.785Z,99139.63
2019-05-03T10:23:28.621Z,99127.09
2019-05-03T10:25:55.222Z,99126.03
2019-05-03T10:28:21.134Z,99125.55
2019-05-03T10:30:47.102Z,99125.66
2019-05-03T10:33:17.872Z,99125.03
2019-05-03T10:35:45.137Z,99132.44
2019-05-03T10:38:11.415Z,99130.00
2019-05-03T10:40:41.592Z,99122.98
2019-05-03T10:43:08.326Z,99128.75
2019-05-03T10:45:35.508Z,99125.71
2019-05-03T10:48:01.634Z,99123.66
2019-05-03T10:50:27.700Z,99122.30
2019-05-03T10:52:58.207Z,99118.67
2019-05-03T10:55:25.038Z,99116.23
2019-05-03T10:58:08.079Z,99114.05
2019-05-03T11:00:48.184Z,99117.28
2019-05-03T11:03:05.330Z,99119.34
2019-05-03T11:05:31.786Z,99121.88
2019-05-03T11:07:57.703Z,99124.19
2019-05-03T11:10:25.281Z,99122.47
2019-05-03T11:12:51.455Z,99114.67
2019-05-03T11:15:17.384Z,99107.73
2019-05-03T11:17:45.370Z,99107.50
2019-05-03T11:20:11.446Z,99103.46
2019-05-03T11:22:37.402Z,99107.33
2019-05-03T11:25:05.151Z,99107.60
2019-05-03T11:27:48.515Z,99107.95
2019-05-03T11:30:15.758Z,99099.23
2019-05-03T11:32:49.801Z,99106.67
2019-05-03T11:35:24.687Z,99109.87
2019-05-03T11:37:52.604Z,99105.15
2019-05-03T11:40:18.567Z,99100.28
2019-05-03T11:42:44.915Z,99108.28
2019-05-03T11:45:11.060Z,99098.40
2019-05-03T11:47:37.232Z,99087.77
2019-05-03T11:50:06.376Z,99083.38
2019-05-03T11:52:32.418Z,99078.66
2019-05-03T11:54:58.483Z,99084.56
2019-05-03T11:57:26.597Z,99079.86
2019-05-03T11:59:54.645Z,99082.96
2019-05-03T12:02:22.266Z,99074.84
2019-05-03T12:04:48.121Z,99076.25
2019-05-03T12:07:18.391Z,99077.14
2019-05-03T12:09:45.203Z,99077.92
2019-05-03T12:12:15.044Z,99083.41
2019-05-03T12:14:40.978Z,99084.59
2019-05-03T12:17:17.860Z,99091.30
2019-05-03T12:19:37.883Z,99094.05
2019-05-03T12:22:06.154Z,99098.83
2019-05-03T12:24:32.442Z,99100.00
2019-05-03T12:26:58.678Z,99100.97
2019-05-03T12:29:24.779Z,99103.22
2019-05-03T12:31:50.616Z,99108.53
2019-05-03T12:34:16.556Z,99115.44
2019-05-03T12:36:42.513Z,99112.88
2019-05-03T12:39:23.211Z,99114.59
2019-05-03T12:41:36.225Z,99114.79
2019-05-03T12:44:04.505Z,99114.33
2019-05-03T12:46:30.024Z,99120.16
2019-05-03T12:48:55.861Z,99117.26
2019-05-03T12:51:21.736Z,99123.99
2019-05-03T12:53:47.552Z,99112.32
2019-05-03T12:56:20.562Z,99116.95
2019-05-03T12:58:45.540Z,99121.12
2019-05-03T13:01:40.935Z,99125.13
2019-05-03T13:03:59.198Z,99126.58
2019-05-03T13:06:25.448Z,99115.84
2019-05-03T13:08:51.468Z,99120.58
2019-05-03T13:11:17.363Z,99114.27
2019-05-03T13:13:45.242Z,99118.28
2019-05-03T13:16:15.185Z,99113.70
2019-05-03T13:18:40.816Z,99106.42
2019-05-03T13:21:06.845Z,99101.52
2019-05-03T13:23:35.357Z,99109.69
2019-05-03T13:26:00.853Z,99112.25
2019-05-03T13:28:26.816Z,99133.19
2019-05-03T13:30:54.492Z,99144.55
2019-05-03T13:33:20.449Z,99146.78
2019-05-03T13:35:46.386Z,99145.41
2019-05-03T13:38:12.237Z,99136.47
2019-05-03T13:40:38.139Z,99138.67
2019-05-03T13:43:06.465Z,99134.71
2019-05-03T13:45:32.019Z,99129.34
2019-05-03T13:47:58.003Z,99124.98
2019-05-03T13:50:24.572Z,99122.27
2019-05-03T13:52:50.645Z,99131.09
2019-05-03T13:55:16.742Z,99124.83
2019-05-03T13:57:42.658Z,99121.98
2019-05-03T14:00:09.121Z,99126.42
2019-05-03T14:02:35.746Z,99130.33
2019-05-03T14:05:04.958Z,99124.05
2019-05-03T14:07:30.979Z,99117.53
2019-05-03T14:09:56.802Z,99113.68
2019-05-03T14:12:24.378Z,99117.73
2019-05-03T14:14:55.749Z,99117.74
2019-05-03T14:17:25.200Z,99110.86
2019-05-03T14:19:54.506Z,99119.12
2019-05-03T14:22:22.313Z,99123.19
2019-05-03T14:24:48.162Z,99124.16
2019-05-03T14:27:15.637Z,99117.91
2019-05-03T14:29:41.967Z,99111.18
2019-05-03T14:32:07.928Z,99117.49
2019-05-03T14:34:35.819Z,99112.00
2019-05-03T14:37:01.666Z,99118.29
2019-05-03T14:39:27.658Z,99119.25
2019-05-03T14:41:55.345Z,99127.86
